createdAt,value
2023-10-10T00:00:01.313Z,10.40
2023-10-10T00:02:30.362Z,10.49
2023-10-10T00:05:04.895Z,10.29
2023-10-10T00:07:36.329Z,10.56
2023-10-10T00:10:04.887Z,10.50
2023-10-10T00:12:36.501Z,10.56
2023-10-10T00:15:07.028Z,10.71
2023-10-10T00:17:42.658Z,10.52
2023-10-10T00:20:31.136Z,10.68
2023-10-10T00:23:05.755Z,10.80
2023-10-10T00:25:33.799Z,10.86
2023-10-10T00:28:06.782Z,10.83
2023-10-10T00:30:44.834Z,10.75
2023-10-10T00:33:17.431Z,10.56
2023-10-10T00:35:46.296Z,10.46
2023-10-10T00:38:20.708Z,10.57
2023-10-10T00:40:49.075Z,10.65
2023-10-10T00:43:18.477Z,10.69
2023-10-10T00:45:53.575Z,10.71
2023-10-10T00:48:24.826Z,10.88
2023-10-10T00:51:07.496Z,10.83
2023-10-10T00:53:37.317Z,10.86
2023-10-10T00:56:08.913Z,10.89
2023-10-10T00:58:38.661Z,10.69
2023-10-10T01:01:10.941Z,10.80
2023-10-10T01:03:50.908Z,10.98
2023-10-10T01:06:26.133Z,10.88
2023-10-10T01:09:14.795Z,10.91
2023-10-10T01:11:44.527Z,10.97
2023-10-10T01:14:19.726Z,10.83
2023-10-10T01:16:49.251Z,11.06
2023-10-10T01:19:19.527Z,10.98
2023-10-10T01:21:52.146Z,10.90
2023-10-10T01:24:23.103Z,10.75
2023-10-10T01:26:52.466Z,10.85
2023-10-10T01:29:28.082Z,10.70
2023-10-10T01:32:00.363Z,10.62
2023-10-10T01:34:45.164Z,10.69
2023-10-10T01:37:28.942Z,10.80
2023-10-10T01:40:20.715Z,10.73
2023-10-10T01:43:00.791Z,10.95
2023-10-10T01:45:28.964Z,10.89
2023-10-10T01:48:04.322Z,10.71
2023-10-10T01:50:32.405Z,10.84
2023-10-10T01:53:01.580Z,10.91
2023-10-10T01:55:29.480Z,10.85
2023-10-10T01:58:03.532Z,10.76
2023-10-10T02:00:35.888Z,10.86
2023-10-10T02:03:05.546Z,10.81
2023-10-10T02:05:36.599Z,10.90
2023-10-10T02:08:27.075Z,10.83
2023-10-10T02:10:57.120Z,10.87
2023-10-10T02:13:26.824Z,10.88
2023-10-10T02:15:54.727Z,10.85
2023-10-10T02:18:39.323Z,10.83
2023-10-10T02:21:16.880Z,10.96
2023-10-10T02:23:48.274Z,11.15
2023-10-10T02:26:25.294Z,11.36
2023-10-10T02:29:13.784Z,11.85
2023-10-10T02:31:43.666Z,12.24
2023-10-10T02:34:12.430Z,12.53
2023-10-10T02:36:42.480Z,12.82
2023-10-10T02:39:30.874Z,13.07
2023-10-10T02:42:04.232Z,13.35
2023-10-10T02:47:53.962Z,13.82
2023-10-10T02:50:41.284Z,13.97
2023-10-10T02:53:10.661Z,14.15
2023-10-10T02:55:42.991Z,14.24
2023-10-10T02:58:23.151Z,14.34
2023-10-10T03:00:53.015Z,14.50
2023-10-10T03:03:21.536Z,14.59
2023-10-10T03:05:55.439Z,14.66
2023-10-10T03:08:33.811Z,14.72
2023-10-10T03:11:16.545Z,14.78
2023-10-10T03:13:55.626Z,14.80
2023-10-10T03:16:24.485Z,14.86
2023-10-10T03:19:01.694Z,14.89
2023-10-10T03:21:48.643Z,14.94
2023-10-10T03:24:37.885Z,14.95
2023-10-10T03:27:20.830Z,14.98
2023-10-10T03:29:51.285Z,15.02
2023-10-10T03:32:34.751Z,14.95
2023-10-10T03:35:07.946Z,15.02
2023-10-10T03:37:55.880Z,15.04
2023-10-10T03:40:49.639Z,14.98
2023-10-10T03:43:36.312Z,14.99
2023-10-10T03:46:23.606Z,14.97
2023-10-10T03:49:18.422Z,14.99
2023-10-10T03:52:04.827Z,14.99
2023-10-10T03:54:51.258Z,15.01
2023-10-10T03:57:37.574Z,15.01
2023-10-10T04:00:24.732Z,15.06
2023-10-10T04:03:11.584Z,15.04
2023-10-10T04:05:58.226Z,14.95
2023-10-10T04:08:45.052Z,14.92
2023-10-10T04:11:32.491Z,14.92
2023-10-10T04:14:19.326Z,14.77
2023-10-10T04:17:06.036Z,14.63
2023-10-10T04:19:52.714Z,14.54
2023-10-10T04:22:39.048Z,14.46
2023-10-10T04:25:25.948Z,14.38
2023-10-10T04:28:12.745Z,14.28
2023-10-10T04:30:59.010Z,14.40
2023-10-10T04:33:45.384Z,14.47
2023-10-10T04:36:31.764Z,14.48
2023-10-10T04:39:17.966Z,14.60
2023-10-10T04:42:12.339Z,14.68
2023-10-10T04:44:58.917Z,14.77
2023-10-10T04:47:45.655Z,14.84
2023-10-10T04:50:32.374Z,15.03
2023-10-10T04:53:19.124Z,15.17
2023-10-10T04:56:05.854Z,15.26
2023-10-10T04:58:52.067Z,15.33
2023-10-10T05:01:38.646Z,15.44
2023-10-10T05:04:33.121Z,15.55
2023-10-10T05:07:19.853Z,15.56
2023-10-10T05:10:06.301Z,15.64
2023-10-10T05:12:52.601Z,15.69
2023-10-10T05:15:39.572Z,15.76
2023-10-10T05:18:26.607Z,15.87
2023-10-10T05:21:13.599Z,15.84
2023-10-10T05:23:49.174Z,15.84
2023-10-10T05:26:21.227Z,15.90
2023-10-10T05:28:50.057Z,15.83
2023-10-10T05:31:22.751Z,15.87
2023-10-10T05:33:52.343Z,15.95
2023-10-10T05:36:20.793Z,15.87
2023-10-10T05:38:51.893Z,15.82
2023-10-10T05:41:21.202Z,15.88
2023-10-10T05:43:52.559Z,15.84
2023-10-10T05:46:20.796Z,15.90
2023-10-10T05:48:48.749Z,15.90
2023-10-10T05:51:16.806Z,15.93
2023-10-10T05:53:47.850Z,15.99
2023-10-10T05:56:18.008Z,15.96
2023-10-10T05:58:48.603Z,15.95
2023-10-10T06:01:18.696Z,16.00
2023-10-10T06:03:47.092Z,16.05
2023-10-10T06:06:17.264Z,16.05
2023-10-10T06:08:46.507Z,16.06
2023-10-10T06:11:18.394Z,16.04
2023-10-10T06:13:48.067Z,16.17
2023-10-10T06:16:17.362Z,16.19
2023-10-10T06:18:48.122Z,16.26
2023-10-10T06:21:16.687Z,16.32
2023-10-10T06:23:46.363Z,16.32
2023-10-10T06:26:15.613Z,16.47
2023-10-10T06:28:47.037Z,16.64
2023-10-10T06:31:21.918Z,16.79
2023-10-10T06:33:57.886Z,17.11
2023-10-10T06:36:26.054Z,17.33
2023-10-10T06:39:05.926Z,17.40
2023-10-10T06:41:48.027Z,17.52
2023-10-10T06:44:16.704Z,17.74
2023-10-10T06:46:50.270Z,17.79
2023-10-10T06:49:22.472Z,17.85
2023-10-10T06:51:51.522Z,17.90
2023-10-10T06:54:29.093Z,17.79
2023-10-10T06:57:01.625Z,17.79
2023-10-10T06:59:31.089Z,17.84
2023-10-10T07:02:01.982Z,17.90
2023-10-10T07:04:30.411Z,17.89
2023-10-10T07:07:02.537Z,17.81
2023-10-10T07:09:37.539Z,18.36
2023-10-10T07:12:12.211Z,19.75
2023-10-10T07:14:55.754Z,20.22
2023-10-10T07:17:28.872Z,19.85
2023-10-10T07:20:17.540Z,19.34
2023-10-10T07:22:46.601Z,19.27
2023-10-10T07:25:41.396Z,19.76
2023-10-10T07:28:15.378Z,20.63
2023-10-10T07:30:45.626Z,20.19
2023-10-10T07:33:15.013Z,19.85
2023-10-10T07:35:46.209Z,19.05
2023-10-10T07:38:17.032Z,18.86
2023-10-10T07:40:45.031Z,18.74
2023-10-10T07:43:14.105Z,18.66
2023-10-10T07:45:45.036Z,18.45
2023-10-10T07:48:13.328Z,18.29
2023-10-10T07:50:58.130Z,18.19
2023-10-10T07:53:35.311Z,18.17
2023-10-10T07:56:03.421Z,18.23
2023-10-10T07:58:53.751Z,18.02
2023-10-10T08:01:22.441Z,17.96
2023-10-10T08:03:51.262Z,17.66
2023-10-10T08:06:23.784Z,17.55
2023-10-10T08:09:11.655Z,17.50
2023-10-10T08:11:40.074Z,17.45
2023-10-10T08:14:10.050Z,17.58
2023-10-10T08:16:44.616Z,17.68
2023-10-10T08:19:12.902Z,17.77
2023-10-10T08:21:50.582Z,17.76
2023-10-10T08:24:21.616Z,17.78
2023-10-10T08:26:52.997Z,17.82
2023-10-10T08:29:27.554Z,17.88
2023-10-10T08:31:55.600Z,17.73
2023-10-10T08:34:26.023Z,17.75
2023-10-10T08:37:04.586Z,17.75
2023-10-10T08:39:40.747Z,17.76
2023-10-10T08:42:16.419Z,17.82
2023-10-10T08:44:50.457Z,17.90
2023-10-10T08:47:33.921Z,18.06
2023-10-10T08:50:02.538Z,18.19
2023-10-10T08:52:33.881Z,18.39
2023-10-10T08:55:03.066Z,18.71
2023-10-10T08:57:31.788Z,18.84
2023-10-10T09:00:00.739Z,19.01
2023-10-10T09:02:35.204Z,18.94
2023-10-10T09:05:05.662Z,18.76
2023-10-10T09:07:34.126Z,19.30
2023-10-10T09:10:15.439Z,20.37
2023-10-10T09:12:54.698Z,20.75
2023-10-10T09:15:23.849Z,20.31
2023-10-10T09:18:00.030Z,19.93
2023-10-10T09:20:33.782Z,20.09
2023-10-10T09:23:13.528Z,20.00
2023-10-10T09:25:49.860Z,19.65
2023-10-10T09:28:18.294Z,18.97
2023-10-10T09:31:13.801Z,19.00
2023-10-10T09:33:47.115Z,18.81
2023-10-10T09:36:21.187Z,18.79
2023-10-10T09:38:55.900Z,18.55
2023-10-10T09:41:33.122Z,18.69
2023-10-10T09:44:40.883Z,18.51
2023-10-10T09:47:10.476Z,18.56
2023-10-10T09:49:53.235Z,18.55
2023-10-10T09:52:41.956Z,18.50
2023-10-10T09:55:15.214Z,18.38
2023-10-10T09:58:00.148Z,18.50
2023-10-10T10:00:34.681Z,18.59
2023-10-10T10:03:24.231Z,18.77
2023-10-10T10:06:30.143Z,18.79
2023-10-10T10:09:19.263Z,18.94
2023-10-10T10:12:21.258Z,18.87
2023-10-10T10:14:56.013Z,18.70
2023-10-10T10:17:55.816Z,18.58
2023-10-10T10:20:51.591Z,18.64
2023-10-10T10:23:27.620Z,18.65
2023-10-10T10:26:28.353Z,18.52
2023-10-10T10:28:59.520Z,18.61
2023-10-10T10:31:38.510Z,18.68
2023-10-10T10:34:17.909Z,18.54
2023-10-10T10:36:55.683Z,18.62
2023-10-10T10:39:36.210Z,18.47
2023-10-10T10:42:17.151Z,18.47
2023-10-10T10:44:46.444Z,18.47
2023-10-10T10:47:36.740Z,18.47
2023-10-10T10:50:29.035Z,18.51
2023-10-10T10:53:05.948Z,18.47
2023-10-10T10:55:41.108Z,18.43
2023-10-10T10:58:35.372Z,18.50
2023-10-10T11:01:18.018Z,18.40
2023-10-10T11:03:46.592Z,18.39
2023-10-10T11:06:15.928Z,18.27
2023-10-10T11:11:26.809Z,18.26
2023-10-10T11:14:21.179Z,18.16
2023-10-10T11:16:57.881Z,18.21
2023-10-10T11:19:30.492Z,18.10
2023-10-10T11:22:06.886Z,18.24
2023-10-10T11:24:36.160Z,18.21
2023-10-10T11:27:13.057Z,18.16
2023-10-10T11:29:52.408Z,18.18
2023-10-10T11:32:26.415Z,18.06
2023-10-10T11:35:13.274Z,18.06
2023-10-10T11:37:45.539Z,17.98
2023-10-10T11:40:21.146Z,18.21
2023-10-10T11:42:51.049Z,18.28
2023-10-10T11:45:27.645Z,18.17
2023-10-10T11:48:06.789Z,18.32
2023-10-10T11:50:58.727Z,18.65
2023-10-10T11:53:29.170Z,18.97
2023-10-10T11:56:12.852Z,19.25
2023-10-10T11:58:40.978Z,19.36
2023-10-10T12:01:09.546Z,19.51
2023-10-10T12:03:41.645Z,19.49
2023-10-10T12:06:21.239Z,19.53
2023-10-10T12:08:50.538Z,19.46
2023-10-10T12:11:23.881Z,19.52
2023-10-10T12:13:53.973Z,19.52
2023-10-10T12:16:25.928Z,19.63
2023-10-10T12:18:55.581Z,19.55
2023-10-10T12:21:25.120Z,19.64
2023-10-10T12:24:00.504Z,19.66
2023-10-10T12:26:31.235Z,19.64
2023-10-10T12:28:59.814Z,19.55
2023-10-10T12:31:28.233Z,19.51
2023-10-10T12:33:56.185Z,19.28
2023-10-10T12:36:30.589Z,19.41
2023-10-10T12:39:06.152Z,19.13
2023-10-10T12:41:47.921Z,19.24
2023-10-10T12:44:16.573Z,19.30
2023-10-10T12:46:44.746Z,19.26
2023-10-10T12:49:13.224Z,19.17
2023-10-10T12:51:46.345Z,19.19
2023-10-10T12:54:18.651Z,19.10
2023-10-10T12:57:12.917Z,19.07
2023-10-10T12:59:41.126Z,19.02
2023-10-10T13:02:15.219Z,18.96
2023-10-10T13:04:48.232Z,18.83
2023-10-10T13:07:19.606Z,18.84
2023-10-10T13:09:48.273Z,18.80
2023-10-10T13:12:29.119Z,18.80
2023-10-10T13:15:17.527Z,18.54
2023-10-10T13:17:52.049Z,18.70
2023-10-10T13:20:24.808Z,18.67
2023-10-10T13:22:52.993Z,18.71
2023-10-10T13:25:21.794Z,18.58
2023-10-10T13:27:53.970Z,18.63
2023-10-10T13:30:22.169Z,18.66
2023-10-10T13:32:50.312Z,18.65
2023-10-10T13:35:21.699Z,18.68
2023-10-10T13:38:10.175Z,18.65
2023-10-10T13:40:50.690Z,18.57
2023-10-10T13:43:19.251Z,18.46
2023-10-10T13:45:52.621Z,18.59
2023-10-10T13:48:23.734Z,18.57
2023-10-10T13:50:57.607Z,18.54
2023-10-10T13:53:25.748Z,18.61
2023-10-10T13:55:53.730Z,18.48
2023-10-10T13:58:21.807Z,18.53
2023-10-10T14:00:57.431Z,18.55
2023-10-10T14:03:36.828Z,18.63
2023-10-10T14:06:05.765Z,18.66
2023-10-10T14:08:34.404Z,18.65
2023-10-10T14:11:03.328Z,18.71
2023-10-10T14:13:31.770Z,18.71
2023-10-10T14:15:59.826Z,18.78
2023-10-10T14:18:44.889Z,18.79
2023-10-10T14:21:13.637Z,18.73
2023-10-10T14:23:42.009Z,18.82
2023-10-10T14:26:14.550Z,18.73
2023-10-10T14:28:51.550Z,18.68
2023-10-10T14:31:24.755Z,18.70
2023-10-10T14:33:53.075Z,18.61
2023-10-10T14:36:22.338Z,18.59
2023-10-10T14:38:51.796Z,18.63
2023-10-10T14:41:26.853Z,18.55
2023-10-10T14:43:56.043Z,18.55
2023-10-10T14:46:28.830Z,18.54
2023-10-10T14:49:16.263Z,18.50
2023-10-10T14:51:52.006Z,18.47
2023-10-10T14:54:20.967Z,18.26
2023-10-10T14:56:51.595Z,18.33
2023-10-10T14:59:26.218Z,18.35
2023-10-10T15:01:54.587Z,18.35
2023-10-10T15:04:23.103Z,18.36
2023-10-10T15:06:55.979Z,18.32
2023-10-10T15:09:28.204Z,18.34
2023-10-10T15:12:01.454Z,18.36
2023-10-10T15:14:33.830Z,18.35
2023-10-10T15:17:06.414Z,18.32
2023-10-10T15:19:35.504Z,18.11
2023-10-10T15:22:04.398Z,18.08
2023-10-10T15:24:34.625Z,18.16
2023-10-10T15:27:02.880Z,18.01
2023-10-10T15:29:34.382Z,18.08
2023-10-10T15:32:05.001Z,17.99
2023-10-10T15:34:33.295Z,17.94
2023-10-10T15:37:13.395Z,17.97
2023-10-10T15:39:43.036Z,17.98
2023-10-10T15:42:12.801Z,17.99
2023-10-10T15:44:42.934Z,18.05
2023-10-10T15:47:11.775Z,17.87
2023-10-10T15:49:40.770Z,17.92
2023-10-10T15:52:09.485Z,17.89
2023-10-10T15:54:37.660Z,17.78
2023-10-10T15:57:07.584Z,17.88
2023-10-10T15:59:37.256Z,17.89
2023-10-10T16:02:11.274Z,17.87
2023-10-10T16:04:44.254Z,17.87
2023-10-10T16:07:13.053Z,17.81
2023-10-10T16:09:41.364Z,17.86
2023-10-10T16:12:14.219Z,17.82
2023-10-10T16:14:42.766Z,17.78
2023-10-10T16:17:17.729Z,17.79
2023-10-10T16:19:46.688Z,17.67
2023-10-10T16:22:15.049Z,17.68
2023-10-10T16:24:43.475Z,17.65
2023-10-10T16:27:11.583Z,17.63
2023-10-10T16:29:39.875Z,17.59
2023-10-10T16:32:09.923Z,17.57
2023-10-10T16:34:43.990Z,17.45
2023-10-10T16:37:15.850Z,17.44
2023-10-10T16:39:46.773Z,17.39
2023-10-10T16:42:25.110Z,17.33
2023-10-10T16:44:55.089Z,17.30
2023-10-10T16:47:24.236Z,17.17
2023-10-10T16:49:52.780Z,17.17
2023-10-10T16:52:21.661Z,17.22
2023-10-10T16:54:53.492Z,17.20
2023-10-10T16:57:26.087Z,17.18
2023-10-10T16:59:58.149Z,17.11
2023-10-10T17:02:30.488Z,17.12
2023-10-10T17:05:06.428Z,17.06
2023-10-10T17:07:35.185Z,17.01
2023-10-10T17:10:07.473Z,16.97
2023-10-10T17:12:36.390Z,16.95
2023-10-10T17:15:06.438Z,16.91
2023-10-10T17:17:37.248Z,16.90
2023-10-10T17:20:06.635Z,16.89
2023-10-10T17:22:35.392Z,16.87
2023-10-10T17:25:04.702Z,16.87
2023-10-10T17:27:35.163Z,16.78
2023-10-10T17:30:06.128Z,16.71
2023-10-10T17:32:35.077Z,16.68
2023-10-10T17:35:06.695Z,16.64
2023-10-10T17:37:36.379Z,16.67
2023-10-10T17:40:12.133Z,16.54
2023-10-10T17:42:45.683Z,16.57
2023-10-10T17:45:14.564Z,16.48
2023-10-10T17:47:43.252Z,16.40
2023-10-10T17:50:13.090Z,16.33
2023-10-10T17:52:44.894Z,16.28
2023-10-10T17:55:15.228Z,16.21
2023-10-10T17:57:44.327Z,16.14
2023-10-10T18:00:15.741Z,16.12
2023-10-10T18:02:48.309Z,16.06
2023-10-10T18:05:18.207Z,16.00
2023-10-10T18:07:47.000Z,15.92
2023-10-10T18:10:16.040Z,15.81
2023-10-10T18:12:45.110Z,15.73
2023-10-10T18:15:14.197Z,15.58
2023-10-10T18:17:43.860Z,15.50
2023-10-10T18:20:21.002Z,15.47
2023-10-10T18:22:53.428Z,15.37
2023-10-10T18:25:25.168Z,15.40
2023-10-10T18:27:54.754Z,15.23
2023-10-10T18:30:24.048Z,15.21
2023-10-10T18:32:53.256Z,15.26
2023-10-10T18:35:28.438Z,15.24
2023-10-10T18:37:57.513Z,15.17
2023-10-10T18:40:27.552Z,15.10
2023-10-10T18:42:56.916Z,15.13
2023-10-10T18:45:27.446Z,15.12
2023-10-10T18:47:56.446Z,14.98
2023-10-10T18:50:25.036Z,14.89
2023-10-10T18:52:55.669Z,14.93
2023-10-10T18:55:31.240Z,14.93
2023-10-10T18:58:08.112Z,14.91
2023-10-10T19:00:38.112Z,14.75
2023-10-10T19:03:08.814Z,14.71
2023-10-10T19:05:37.946Z,14.71
2023-10-10T19:08:07.096Z,14.67
2023-10-10T19:10:39.802Z,14.57
2023-10-10T19:13:10.749Z,14.43
2023-10-10T19:15:39.544Z,14.45
2023-10-10T19:18:08.775Z,14.25
2023-10-10T19:20:38.488Z,14.22
2023-10-10T19:23:17.936Z,14.25
2023-10-10T19:25:49.428Z,14.21
2023-10-10T19:28:18.569Z,14.23
2023-10-10T19:30:47.487Z,14.11
2023-10-10T19:33:16.769Z,13.99
2023-10-10T19:35:45.865Z,13.95
2023-10-10T19:38:15.137Z,13.84
2023-10-10T19:40:45.575Z,13.84
2023-10-10T19:43:14.577Z,13.62
2023-10-10T19:45:43.513Z,13.33
2023-10-10T19:48:17.234Z,13.43
2023-10-10T19:50:49.118Z,13.50
2023-10-10T19:53:18.341Z,13.52
2023-10-10T19:55:50.941Z,13.41
2023-10-10T19:58:22.516Z,13.33
2023-10-10T20:00:51.360Z,13.36
2023-10-10T20:03:23.775Z,13.21
2023-10-10T20:05:54.297Z,13.08
2023-10-10T20:08:22.969Z,13.13
2023-10-10T20:10:52.279Z,13.08
2023-10-10T20:13:22.282Z,13.08
2023-10-10T20:15:54.228Z,12.82
2023-10-10T20:18:22.909Z,12.94
2023-10-10T20:20:53.496Z,13.09
2023-10-10T20:23:24.115Z,13.17
2023-10-10T20:25:52.624Z,13.18
2023-10-10T20:28:20.843Z,13.10
2023-10-10T20:30:49.113Z,12.95
2023-10-10T20:33:17.862Z,13.01
2023-10-10T20:35:47.170Z,13.03
2023-10-10T20:38:21.169Z,12.87
2023-10-10T20:40:49.458Z,12.93
2023-10-10T20:43:17.607Z,13.06
2023-10-10T20:45:45.632Z,13.08
2023-10-10T20:48:23.289Z,13.07
2023-10-10T20:50:51.663Z,13.16
2023-10-10T20:53:21.129Z,13.19
2023-10-10T20:55:51.298Z,13.21
2023-10-10T20:58:20.173Z,13.11
2023-10-10T21:00:48.111Z,12.95
2023-10-10T21:03:16.699Z,13.24
2023-10-10T21:05:44.871Z,13.09
2023-10-10T21:08:13.250Z,12.80
2023-10-10T21:10:41.887Z,12.50
2023-10-10T21:13:09.923Z,12.63
2023-10-10T21:15:38.007Z,12.35
2023-10-10T21:18:09.522Z,12.43
2023-10-10T21:20:56.557Z,12.35
2023-10-10T21:23:28.593Z,12.42
2023-10-10T21:25:56.662Z,12.46
2023-10-10T21:28:25.902Z,12.52
2023-10-10T21:30:54.173Z,12.41
2023-10-10T21:33:22.542Z,12.25
2023-10-10T21:35:51.135Z,12.21
2023-10-10T21:38:25.223Z,12.27
2023-10-10T21:41:03.429Z,12.31
2023-10-10T21:43:31.882Z,12.37
2023-10-10T21:45:59.869Z,12.32
2023-10-10T21:48:28.012Z,12.23
2023-10-10T21:50:59.498Z,12.23
2023-10-10T21:53:29.901Z,12.35
2023-10-10T21:56:01.053Z,12.46
2023-10-10T21:58:29.240Z,12.50
2023-10-10T22:00:57.148Z,12.51
2023-10-10T22:03:26.950Z,12.43
2023-10-10T22:05:55.166Z,12.43
2023-10-10T22:08:27.279Z,12.37
2023-10-10T22:11:01.169Z,12.38
2023-10-10T22:13:30.638Z,12.26
2023-10-10T22:15:58.737Z,12.25
2023-10-10T22:18:26.877Z,12.29
2023-10-10T22:20:57.498Z,12.21
2023-10-10T22:23:27.855Z,12.24
2023-10-10T22:26:03.064Z,12.24
2023-10-10T22:28:33.084Z,12.20
2023-10-10T22:31:01.092Z,12.03
2023-10-10T22:33:31.248Z,11.96
2023-10-10T22:36:02.138Z,11.91
2023-10-10T22:38:30.239Z,12.00
2023-10-10T22:40:59.265Z,12.04
2023-10-10T22:43:27.658Z,12.09
2023-10-10T22:45:55.747Z,12.12
2023-10-10T22:48:23.987Z,12.13
2023-10-10T22:50:54.570Z,12.01
2023-10-10T22:53:22.677Z,11.81
2023-10-10T22:55:50.563Z,11.84
2023-10-10T22:58:21.766Z,11.82
2023-10-10T23:00:49.999Z,11.75
2023-10-10T23:03:20.887Z,11.65
2023-10-10T23:05:49.168Z,11.71
2023-10-10T23:08:17.487Z,11.70
2023-10-10T23:10:49.503Z,11.72
2023-10-10T23:13:18.023Z,11.45
2023-10-10T23:15:50.265Z,11.39
2023-10-10T23:18:18.988Z,11.48
2023-10-10T23:20:47.662Z,11.60
2023-10-10T23:23:17.480Z,11.61
2023-10-10T23:25:48.655Z,11.64
2023-10-10T23:28:16.681Z,11.43
2023-10-10T23:30:44.732Z,11.40
2023-10-10T23:33:14.235Z,11.44
2023-10-10T23:35:42.854Z,11.49
2023-10-10T23:38:12.111Z,11.37
2023-10-10T23:40:40.992Z,11.20
2023-10-10T23:43:10.456Z,11.32
2023-10-10T23:45:44.527Z,11.33
2023-10-10T23:48:17.273Z,11.19
2023-10-10T23:50:46.774Z,11.11
2023-10-10T23:53:15.468Z,11.09
2023-10-10T23:55:48.383Z,11.16
2023-10-10T23:58:17.004Z,11.13
